createdAt,value
2023-02-05T00:00:39.559Z,7.00
2023-02-05T00:03:06.244Z,7.03
2023-02-05T00:05:33.229Z,6.67
2023-02-05T00:08:00.127Z,6.97
2023-02-05T00:10:26.743Z,7.50
2023-02-05T00:12:53.367Z,7.47
2023-02-05T00:15:20.138Z,8.13
2023-02-05T00:17:46.824Z,6.53
2023-02-05T00:20:13.443Z,7.20
2023-02-05T00:22:40.115Z,7.77
2023-02-05T00:25:06.900Z,8.43
2023-02-05T00:27:33.904Z,7.33
2023-02-05T00:30:00.554Z,9.33
2023-02-05T00:32:27.193Z,5.90
2023-02-05T00:34:53.833Z,7.60
2023-02-05T00:37:20.443Z,7.30
2023-02-05T00:39:47.082Z,5.93
2023-02-05T00:42:13.736Z,6.27
2023-02-05T00:44:40.391Z,7.07
2023-02-05T00:47:07.112Z,7.03
2023-02-05T00:49:33.764Z,6.60
2023-02-05T00:52:00.410Z,6.37
2023-02-05T00:54:27.045Z,7.67
2023-02-05T00:56:53.663Z,5.43
2023-02-05T00:59:20.312Z,6.50
2023-02-05T01:01:47.019Z,5.07
2023-02-05T01:04:13.689Z,8.43
2023-02-05T01:06:40.427Z,5.23
2023-02-05T01:09:07.066Z,5.83
2023-02-05T01:11:33.675Z,6.90
2023-02-05T01:14:00.307Z,7.17
2023-02-05T01:16:26.970Z,6.57
2023-02-05T01:18:56.267Z,6.70
2023-02-05T01:21:24.821Z,6.27
2023-02-05T01:23:52.142Z,6.80
2023-02-05T01:26:18.843Z,6.73
2023-02-05T01:28:45.557Z,6.30
2023-02-05T01:31:12.348Z,8.30
2023-02-05T01:33:39.069Z,6.13
2023-02-05T01:36:06.108Z,5.73
2023-02-05T01:38:32.859Z,8.23
2023-02-05T01:40:59.999Z,6.30
2023-02-05T01:43:26.655Z,6.17
2023-02-05T01:46:17.039Z,6.37
2023-02-05T01:48:45.938Z,6.10
2023-02-05T01:51:13.733Z,5.90
2023-02-05T01:53:40.348Z,6.70
2023-02-05T01:56:12.334Z,5.97
2023-02-05T01:58:48.460Z,7.40
2023-02-05T02:01:15.410Z,5.83
2023-02-05T02:03:42.027Z,5.30
2023-02-05T02:06:08.640Z,5.10
2023-02-05T02:08:35.288Z,5.97
2023-02-05T02:11:03.099Z,6.93
2023-02-05T02:13:29.782Z,5.80
2023-02-05T02:15:56.433Z,5.47
2023-02-05T02:18:28.804Z,6.27
2023-02-05T02:21:07.628Z,5.70
2023-02-05T02:23:40.030Z,4.50
2023-02-05T02:26:17.100Z,5.27
2023-02-05T02:28:50.876Z,6.10
2023-02-05T02:31:28.139Z,4.43
2023-02-05T02:34:03.738Z,4.63
2023-02-05T02:36:39.155Z,5.53
2023-02-05T02:39:19.318Z,5.80
2023-02-05T02:41:53.828Z,5.10
2023-02-05T02:44:28.553Z,4.03
2023-02-05T02:46:56.842Z,4.63
2023-02-05T02:49:28.904Z,5.23
2023-02-05T02:51:55.555Z,3.70
2023-02-05T02:54:22.285Z,4.10
2023-02-05T02:56:49.108Z,3.83
2023-02-05T02:59:18.073Z,4.23
2023-02-05T03:01:53.727Z,5.77
2023-02-05T03:04:34.847Z,5.60
2023-02-05T03:07:32.312Z,5.80
2023-02-05T03:10:08.044Z,4.13
2023-02-05T03:12:34.714Z,3.80
2023-02-05T03:15:01.342Z,4.13
2023-02-05T03:17:27.972Z,5.47
2023-02-05T03:20:20.800Z,4.10
2023-02-05T03:22:47.435Z,5.73
2023-02-05T03:25:14.588Z,4.87
2023-02-05T03:27:41.224Z,5.27
2023-02-05T03:30:08.365Z,4.03
2023-02-05T03:33:00.987Z,4.80
2023-02-05T03:35:37.015Z,3.60
2023-02-05T03:38:08.904Z,5.20
2023-02-05T03:40:42.482Z,4.70
2023-02-05T03:43:33.060Z,6.33
2023-02-05T03:45:59.834Z,4.60
2023-02-05T03:48:38.010Z,7.00
2023-02-05T03:51:28.787Z,5.33
2023-02-05T03:54:21.617Z,4.40
2023-02-05T03:57:16.182Z,7.90
2023-02-05T03:59:42.879Z,5.27
2023-02-05T04:02:09.540Z,4.97
2023-02-05T04:04:36.200Z,5.90
2023-02-05T04:07:02.885Z,5.30
2023-02-05T04:09:29.523Z,5.23
2023-02-05T04:11:56.287Z,5.83
2023-02-05T04:14:22.912Z,5.60
2023-02-05T04:16:49.537Z,5.60
2023-02-05T04:19:16.175Z,6.27
2023-02-05T04:21:42.811Z,5.83
2023-02-05T04:24:09.526Z,5.83
2023-02-05T04:26:36.179Z,6.60
2023-02-05T04:29:02.968Z,7.13
2023-02-05T04:31:29.650Z,7.00
2023-02-05T04:33:56.296Z,7.07
2023-02-05T04:36:22.936Z,9.10
2023-02-05T04:38:49.604Z,7.67
2023-02-05T04:41:16.233Z,7.20
2023-02-05T04:43:42.860Z,8.70
2023-02-05T04:46:10.152Z,7.20
2023-02-05T04:48:37.048Z,6.67
2023-02-05T04:51:08.520Z,8.37
2023-02-05T04:53:35.136Z,7.73
2023-02-05T04:56:20.054Z,6.43
2023-02-05T04:58:46.745Z,6.40
2023-02-05T05:01:15.469Z,7.57
2023-02-05T05:03:42.361Z,7.60
2023-02-05T05:06:09.094Z,7.90
2023-02-05T05:08:35.760Z,6.17
2023-02-05T05:11:06.819Z,7.40
2023-02-05T05:13:35.344Z,6.33
2023-02-05T05:16:02.172Z,7.00
2023-02-05T05:18:28.806Z,7.67
2023-02-05T05:20:55.492Z,6.50
2023-02-05T05:23:22.124Z,6.23
2023-02-05T05:25:48.791Z,7.70
2023-02-05T05:28:15.830Z,9.37
2023-02-05T05:30:43.691Z,6.80
2023-02-05T05:33:10.635Z,6.30
2023-02-05T05:35:37.448Z,6.77
2023-02-05T05:38:04.150Z,8.13
2023-02-05T05:40:49.251Z,7.40
2023-02-05T05:43:35.875Z,6.50
2023-02-05T05:46:02.814Z,6.83
2023-02-05T05:48:29.473Z,9.33
2023-02-05T05:50:56.106Z,8.20
2023-02-05T05:53:22.853Z,8.30
2023-02-05T05:55:49.696Z,7.13
2023-02-05T05:58:16.515Z,6.90
2023-02-05T06:00:43.148Z,6.90
2023-02-05T06:03:12.955Z,7.10
2023-02-05T06:05:39.589Z,6.60
2023-02-05T06:08:06.391Z,9.00
2023-02-05T06:10:33.199Z,9.20
2023-02-05T06:13:00.266Z,7.20
2023-02-05T06:15:26.981Z,6.90
2023-02-05T06:17:53.706Z,6.87
2023-02-05T06:20:20.652Z,8.57
2023-02-05T06:22:47.306Z,6.43
2023-02-05T06:25:15.560Z,7.00
2023-02-05T06:27:42.248Z,7.13
2023-02-05T06:30:09.497Z,8.67
2023-02-05T06:32:36.108Z,8.17
2023-02-05T06:35:02.724Z,7.87
2023-02-05T06:37:46.232Z,9.50
2023-02-05T06:40:15.765Z,7.83
2023-02-05T06:42:42.629Z,6.53
2023-02-05T06:45:10.053Z,7.53
2023-02-05T06:47:37.164Z,8.27
2023-02-05T06:50:05.014Z,8.70
2023-02-05T06:52:31.705Z,8.30
2023-02-05T06:54:58.307Z,7.70
2023-02-05T06:57:24.994Z,8.10
2023-02-05T06:59:51.612Z,6.30
2023-02-05T07:02:18.255Z,6.63
2023-02-05T07:04:44.861Z,8.90
2023-02-05T07:07:11.553Z,6.40
2023-02-05T07:09:38.160Z,7.00
2023-02-05T07:12:05.135Z,6.63
2023-02-05T07:14:31.763Z,6.87
2023-02-05T07:16:58.500Z,9.50
2023-02-05T07:19:25.126Z,6.43
2023-02-05T07:21:51.736Z,7.60
2023-02-05T07:24:18.339Z,8.37
2023-02-05T07:26:45.318Z,7.60
2023-02-05T07:29:12.048Z,8.50
2023-02-05T07:31:38.906Z,9.60
2023-02-05T07:34:05.549Z,11.27
2023-02-05T07:36:32.209Z,8.63
2023-02-05T07:38:58.929Z,8.63
2023-02-05T07:41:26.818Z,6.47
2023-02-05T07:43:56.539Z,9.97
2023-02-05T07:46:23.252Z,7.83
2023-02-05T07:48:49.943Z,8.83
2023-02-05T07:51:18.254Z,9.30
2023-02-05T07:53:45.374Z,8.17
2023-02-05T07:56:12.032Z,10.07
2023-02-05T07:58:38.749Z,10.93
2023-02-05T08:01:05.806Z,9.30
2023-02-05T08:03:32.783Z,8.83
2023-02-05T08:05:59.543Z,9.13
2023-02-05T08:08:26.163Z,9.37
2023-02-05T08:11:03.985Z,9.67
2023-02-05T08:13:30.666Z,12.03
2023-02-05T08:15:57.469Z,10.97
2023-02-05T08:18:24.233Z,13.50
2023-02-05T08:20:54.347Z,11.73
2023-02-05T08:23:21.389Z,12.67
2023-02-05T08:25:48.092Z,10.80
2023-02-05T08:28:14.998Z,12.20
2023-02-05T08:30:41.680Z,11.30
2023-02-05T08:33:08.301Z,12.10
2023-02-05T08:35:36.349Z,11.07
2023-02-05T08:38:03.210Z,12.20
2023-02-05T08:40:29.938Z,11.47
2023-02-05T08:42:57.836Z,11.30
2023-02-05T08:45:24.785Z,10.57
2023-02-05T08:47:51.620Z,10.77
2023-02-05T08:50:18.941Z,11.03
2023-02-05T08:52:45.711Z,11.87
2023-02-05T08:55:12.682Z,12.47
2023-02-05T08:57:39.296Z,14.73
2023-02-05T09:00:06.862Z,15.97
2023-02-05T09:02:33.504Z,15.57
2023-02-05T09:05:08.400Z,16.47
2023-02-05T09:07:36.530Z,14.13
2023-02-05T09:10:03.198Z,14.50
2023-02-05T09:12:29.976Z,13.33
2023-02-05T09:14:56.661Z,14.47
2023-02-05T09:17:23.328Z,16.20
2023-02-05T09:19:49.958Z,19.90
2023-02-05T09:22:18.329Z,14.07
2023-02-05T09:24:45.104Z,11.70
2023-02-05T09:27:14.359Z,10.93
2023-02-05T09:29:42.085Z,10.63
2023-02-05T09:32:08.924Z,11.90
2023-02-05T09:34:35.526Z,11.33
2023-02-05T09:37:02.381Z,10.70
2023-02-05T09:40:12.288Z,10.27
2023-02-05T09:43:07.831Z,11.97
2023-02-05T09:46:08.177Z,11.23
2023-02-05T09:48:43.292Z,11.40
2023-02-05T09:51:10.862Z,15.00
2023-02-05T09:53:40.822Z,11.13
2023-02-05T09:56:07.531Z,10.60
2023-02-05T09:58:37.873Z,11.17
2023-02-05T10:01:20.364Z,10.37
2023-02-05T10:04:09.408Z,9.93
2023-02-05T10:07:14.074Z,14.07
2023-02-05T10:10:16.120Z,9.97
2023-02-05T10:12:45.964Z,12.50
2023-02-05T10:15:44.293Z,9.40
2023-02-05T10:18:37.943Z,10.27
2023-02-05T10:21:23.549Z,10.43
2023-02-05T10:24:21.427Z,10.50
2023-02-05T10:26:52.757Z,12.23
2023-02-05T10:29:34.567Z,11.17
2023-02-05T10:32:17.070Z,11.90
2023-02-05T10:34:56.860Z,13.57
2023-02-05T10:37:44.170Z,15.10
2023-02-05T10:40:15.796Z,12.97
2023-02-05T10:43:03.018Z,14.00
2023-02-05T10:45:30.101Z,14.70
2023-02-05T10:48:20.385Z,14.30
2023-02-05T10:51:00.000Z,17.10
2023-02-05T10:53:27.225Z,16.70
2023-02-05T10:55:53.848Z,16.90
2023-02-05T10:58:41.402Z,15.20
2023-02-05T11:01:11.395Z,14.10
2023-02-05T11:03:38.148Z,29.20
2023-02-05T11:06:09.001Z,20.47
2023-02-05T11:08:41.099Z,13.60
2023-02-05T11:11:07.994Z,15.27
2023-02-05T11:13:38.323Z,13.50
2023-02-05T11:16:08.195Z,13.77
2023-02-05T11:18:45.871Z,13.13
2023-02-05T11:21:12.492Z,14.93
2023-02-05T11:23:40.138Z,49.30
2023-02-05T11:26:17.963Z,35.80
2023-02-05T11:28:45.108Z,19.80
2023-02-05T11:31:34.756Z,18.17
2023-02-05T11:34:07.435Z,13.70
2023-02-05T11:36:34.342Z,14.00
2023-02-05T11:39:01.441Z,15.70
2023-02-05T11:41:32.571Z,13.33
2023-02-05T11:44:00.555Z,16.07
2023-02-05T11:46:28.246Z,12.20
2023-02-05T11:49:01.826Z,13.10
2023-02-05T11:51:45.214Z,12.30
2023-02-05T11:54:37.955Z,12.10
2023-02-05T11:57:19.804Z,14.23
2023-02-05T12:00:15.864Z,21.37
2023-02-05T12:02:42.950Z,15.97
2023-02-05T12:05:12.628Z,24.50
2023-02-05T12:08:05.010Z,16.17
2023-02-05T12:10:38.355Z,15.77
2023-02-05T12:14:04.304Z,14.77
2023-02-05T12:16:46.312Z,15.10
2023-02-05T12:19:21.978Z,19.63
2023-02-05T12:22:02.304Z,13.87
2023-02-05T12:24:40.752Z,16.60
2023-02-05T12:27:26.963Z,14.43
2023-02-05T12:30:19.792Z,13.77
2023-02-05T12:33:04.642Z,11.87
2023-02-05T12:36:08.954Z,14.10
2023-02-05T12:38:40.159Z,12.97
2023-02-05T12:41:45.074Z,15.13
2023-02-05T12:44:24.448Z,14.97
2023-02-05T12:46:54.888Z,15.80
2023-02-05T12:49:29.003Z,18.60
2023-02-05T12:52:03.505Z,43.63
2023-02-05T12:54:47.070Z,32.10
2023-02-05T12:57:21.735Z,41.33
2023-02-05T12:59:50.866Z,39.47
2023-02-05T13:02:31.020Z,24.43
2023-02-05T13:05:18.725Z,26.67
2023-02-05T13:07:46.941Z,17.57
2023-02-05T13:10:13.524Z,17.50
2023-02-05T13:12:43.305Z,14.53
2023-02-05T13:15:21.982Z,25.87
2023-02-05T13:18:04.474Z,31.57
2023-02-05T13:20:59.718Z,22.53
2023-02-05T13:23:44.895Z,18.67
2023-02-05T13:26:25.362Z,12.40
2023-02-05T13:29:02.329Z,16.40
2023-02-05T13:31:43.514Z,16.87
2023-02-05T13:34:12.540Z,16.47
2023-02-05T13:37:00.668Z,16.67
2023-02-05T13:39:58.527Z,14.20
2023-02-05T13:42:46.636Z,17.13
2023-02-05T13:45:25.690Z,18.83
2023-02-05T13:48:16.897Z,13.93
2023-02-05T13:51:00.545Z,12.33
2023-02-05T13:53:29.419Z,12.67
2023-02-05T13:56:11.208Z,11.73
2023-02-05T13:58:52.099Z,12.07
2023-02-05T14:01:22.380Z,13.40
2023-02-05T14:04:15.484Z,13.10
2023-02-05T14:06:43.375Z,13.80
2023-02-05T14:09:11.579Z,13.50
2023-02-05T14:11:54.540Z,14.30
2023-02-05T14:14:41.854Z,13.23
2023-02-05T14:17:31.052Z,11.53
2023-02-05T14:19:58.844Z,16.73
2023-02-05T14:22:38.868Z,15.93
2023-02-05T14:25:51.513Z,14.70
2023-02-05T14:28:29.819Z,14.50
2023-02-05T14:30:59.660Z,14.70
2023-02-05T14:33:42.274Z,13.03
2023-02-05T14:36:18.285Z,17.53
2023-02-05T14:38:54.430Z,14.60
2023-02-05T14:41:28.044Z,14.70
2023-02-05T14:44:25.480Z,16.13
2023-02-05T14:46:59.795Z,14.87
2023-02-05T14:49:37.821Z,15.97
2023-02-05T14:52:07.770Z,14.10
2023-02-05T14:54:42.555Z,16.33
2023-02-05T14:57:28.914Z,18.80
2023-02-05T15:00:06.380Z,16.10
2023-02-05T15:03:10.760Z,19.47
2023-02-05T15:05:42.099Z,17.10
2023-02-05T15:08:16.413Z,19.30
2023-02-05T15:11:00.141Z,21.33
2023-02-05T15:13:26.772Z,15.00
2023-02-05T15:16:11.917Z,15.63
2023-02-05T15:18:58.022Z,16.37
2023-02-05T15:21:30.384Z,18.13
2023-02-05T15:24:13.849Z,15.20
2023-02-05T15:26:59.001Z,19.57
2023-02-05T15:29:42.879Z,16.00
2023-02-05T15:32:32.673Z,17.40
2023-02-05T15:35:04.125Z,15.63
2023-02-05T15:37:40.505Z,21.10
2023-02-05T15:40:21.937Z,19.30
2023-02-05T15:42:51.535Z,16.17
2023-02-05T15:45:27.417Z,15.27
2023-02-05T15:48:22.874Z,18.17
2023-02-05T15:51:13.621Z,14.70
2023-02-05T15:53:49.421Z,15.13
2023-02-05T15:56:29.395Z,18.20
2023-02-05T15:59:04.773Z,21.13
2023-02-05T16:01:32.538Z,19.17
2023-02-05T16:03:59.364Z,19.63
2023-02-05T16:06:27.098Z,14.20
2023-02-05T16:08:53.815Z,15.17
2023-02-05T16:11:31.517Z,18.13
2023-02-05T16:14:08.146Z,14.83
2023-02-05T16:16:36.087Z,16.30
2023-02-05T16:19:03.289Z,15.33
2023-02-05T16:21:32.894Z,15.03
2023-02-05T16:24:04.707Z,14.83
2023-02-05T16:26:39.716Z,15.50
2023-02-05T16:29:11.653Z,19.83
2023-02-05T16:31:46.884Z,16.33
2023-02-05T16:34:18.174Z,13.40
2023-02-05T16:36:46.465Z,18.30
2023-02-05T16:39:24.043Z,14.63
2023-02-05T16:42:05.177Z,16.77
2023-02-05T16:44:39.538Z,16.37
2023-02-05T16:47:32.480Z,17.50
2023-02-05T16:49:59.125Z,18.30
2023-02-05T16:52:30.914Z,16.90
2023-02-05T16:54:59.008Z,15.90
2023-02-05T16:57:31.306Z,17.70
2023-02-05T17:00:18.098Z,15.03
2023-02-05T17:02:44.711Z,13.63
2023-02-05T17:05:22.697Z,20.67
2023-02-05T17:08:00.965Z,13.37
2023-02-05T17:10:30.789Z,16.63
2023-02-05T17:12:58.792Z,14.90
2023-02-05T17:15:27.529Z,17.07
2023-02-05T17:17:55.938Z,14.23
2023-02-05T17:20:23.434Z,16.20
2023-02-05T17:23:08.157Z,12.03
2023-02-05T17:25:36.743Z,13.33
2023-02-05T17:28:03.954Z,11.50
2023-02-05T17:30:30.649Z,14.27
2023-02-05T17:32:57.373Z,18.33
2023-02-05T17:35:25.702Z,12.30
2023-02-05T17:37:53.004Z,12.00
2023-02-05T17:40:19.841Z,12.27
2023-02-05T17:42:47.068Z,15.43
2023-02-05T17:45:21.837Z,15.90
2023-02-05T17:47:48.846Z,12.63
2023-02-05T17:50:15.810Z,12.30
2023-02-05T17:52:44.158Z,10.60
2023-02-05T17:55:14.176Z,12.07
2023-02-05T17:57:42.915Z,11.77
2023-02-05T18:00:15.169Z,14.07
2023-02-05T18:02:41.795Z,11.60
2023-02-05T18:05:08.522Z,10.70
2023-02-05T18:07:56.780Z,14.07
2023-02-05T18:10:25.833Z,11.20
2023-02-05T18:12:52.836Z,17.20
2023-02-05T18:15:19.868Z,19.00
2023-02-05T18:17:46.646Z,12.33
2023-02-05T18:20:13.662Z,15.27
2023-02-05T18:22:40.287Z,13.10
2023-02-05T18:25:07.312Z,14.10
2023-02-05T18:27:34.085Z,17.93
2023-02-05T18:30:00.813Z,14.33
2023-02-05T18:32:27.886Z,13.77
2023-02-05T18:34:54.617Z,14.53
2023-02-05T18:37:21.415Z,15.10
2023-02-05T18:39:48.275Z,14.17
2023-02-05T18:42:15.046Z,13.60
2023-02-05T18:44:41.700Z,13.87
2023-02-05T18:47:08.414Z,12.27
2023-02-05T18:49:35.166Z,13.13
2023-02-05T18:52:02.039Z,15.40
2023-02-05T18:54:28.856Z,16.20
2023-02-05T18:56:56.361Z,12.83
2023-02-05T18:59:25.578Z,13.80
2023-02-05T19:01:52.443Z,18.10
2023-02-05T19:04:20.612Z,14.70
2023-02-05T19:06:52.356Z,14.70
2023-02-05T19:09:23.025Z,14.47
2023-02-05T19:11:49.927Z,16.77
2023-02-05T19:14:18.036Z,20.30
2023-02-05T19:16:44.844Z,12.30
2023-02-05T19:19:13.551Z,17.27
2023-02-05T19:21:40.684Z,17.77
2023-02-05T19:24:09.629Z,21.33
2023-02-05T19:26:37.849Z,15.17
2023-02-05T19:29:06.683Z,18.23
2023-02-05T19:31:35.092Z,19.23
2023-02-05T19:34:01.838Z,20.57
2023-02-05T19:36:28.877Z,18.20
2023-02-05T19:38:55.483Z,22.47
2023-02-05T19:41:24.329Z,19.43
2023-02-05T19:43:56.097Z,17.17
2023-02-05T19:46:25.664Z,15.90
2023-02-05T19:48:52.784Z,16.30
2023-02-05T19:51:19.762Z,16.30
2023-02-05T19:53:46.514Z,16.10
2023-02-05T19:56:18.127Z,15.37
2023-02-05T19:58:45.889Z,18.77
2023-02-05T20:01:28.336Z,20.30
2023-02-05T20:03:56.801Z,21.10
2023-02-05T20:06:24.426Z,19.27
2023-02-05T20:08:51.319Z,15.57
2023-02-05T20:11:18.103Z,25.77
2023-02-05T20:13:44.792Z,27.73
2023-02-05T20:16:13.358Z,24.90
2023-02-05T20:18:40.653Z,25.47
2023-02-05T20:21:08.288Z,25.20
2023-02-05T20:23:34.926Z,26.33
2023-02-05T20:26:04.236Z,23.27
2023-02-05T20:28:31.986Z,23.13
2023-02-05T20:31:17.252Z,22.57
2023-02-05T20:33:43.960Z,21.07
2023-02-05T20:36:12.079Z,22.03
2023-02-05T20:38:39.259Z,24.73
2023-02-05T20:41:16.715Z,20.87
2023-02-05T20:43:43.587Z,23.03
2023-02-05T20:46:10.784Z,21.20
2023-02-05T20:48:38.086Z,23.00
2023-02-05T20:51:09.168Z,23.80
2023-02-05T20:53:35.848Z,23.90
2023-02-05T20:56:03.716Z,24.50
2023-02-05T20:58:31.437Z,27.67
2023-02-05T21:01:14.950Z,24.43
2023-02-05T21:03:43.786Z,26.03
2023-02-05T21:06:10.504Z,22.37
2023-02-05T21:08:44.021Z,22.80
2023-02-05T21:11:10.820Z,28.50
2023-02-05T21:13:37.464Z,23.37
2023-02-05T21:16:04.605Z,26.00
2023-02-05T21:18:31.283Z,24.43
2023-02-05T21:21:15.444Z,20.47
2023-02-05T21:23:42.384Z,31.03
2023-02-05T21:26:09.339Z,28.70
2023-02-05T21:28:35.936Z,24.40
2023-02-05T21:31:03.925Z,22.30
2023-02-05T21:33:30.703Z,26.63
2023-02-05T21:35:57.334Z,21.87
2023-02-05T21:38:23.982Z,25.60
2023-02-05T21:40:51.511Z,28.43
2023-02-05T21:43:18.169Z,25.53
2023-02-05T21:45:45.036Z,27.13
2023-02-05T21:48:11.724Z,31.70
2023-02-05T21:50:39.733Z,29.90
2023-02-05T21:53:06.430Z,21.37
2023-02-05T21:55:33.682Z,28.77
2023-02-05T21:58:00.388Z,31.30
2023-02-05T22:00:26.998Z,25.47
2023-02-05T22:02:53.614Z,28.73
2023-02-05T22:05:20.363Z,26.93
2023-02-05T22:07:47.036Z,31.00
2023-02-05T22:10:13.712Z,28.00
2023-02-05T22:12:40.360Z,24.93
2023-02-05T22:15:07.283Z,25.30
2023-02-05T22:17:33.902Z,30.73
2023-02-05T22:20:00.677Z,28.77
2023-02-05T22:22:27.400Z,27.97
2023-02-05T22:24:54.078Z,28.17
2023-02-05T22:27:21.635Z,36.87
2023-02-05T22:29:49.374Z,31.23
2023-02-05T22:32:16.073Z,31.73
2023-02-05T22:34:43.703Z,25.77
2023-02-05T22:37:10.354Z,32.13
2023-02-05T22:39:37.044Z,28.47
2023-02-05T22:42:04.724Z,29.80
2023-02-05T22:44:31.441Z,27.67
2023-02-05T22:46:58.064Z,31.23
2023-02-05T22:49:24.706Z,30.40
2023-02-05T22:51:52.071Z,26.30
2023-02-05T22:54:18.711Z,24.47
2023-02-05T22:56:45.779Z,23.30
2023-02-05T22:59:12.619Z,24.10
2023-02-05T23:01:39.359Z,24.60
2023-02-05T23:04:07.063Z,25.57
2023-02-05T23:06:35.372Z,25.83
2023-02-05T23:09:06.847Z,23.03
2023-02-05T23:11:33.847Z,21.70
2023-02-05T23:14:00.916Z,25.53
2023-02-05T23:16:32.909Z,23.27
2023-02-05T23:19:01.272Z,23.03
2023-02-05T23:21:29.326Z,21.97
2023-02-05T23:23:56.166Z,25.87
2023-02-05T23:26:27.620Z,25.40
2023-02-05T23:28:54.771Z,19.30
2023-02-05T23:31:21.768Z,23.27
2023-02-05T23:33:48.428Z,23.23
2023-02-05T23:36:15.197Z,20.10
2023-02-05T23:38:41.934Z,22.43
2023-02-05T23:41:08.778Z,20.67
2023-02-05T23:43:36.226Z,24.20
2023-02-05T23:46:03.058Z,19.90
2023-02-05T23:48:29.707Z,20.00
2023-02-05T23:50:59.582Z,20.13
2023-02-05T23:53:26.288Z,21.40
2023-02-05T23:55:52.994Z,19.17
2023-02-05T23:58:20.147Z,17.57
